createdAt,value
2022-11-30T00:01:33.837Z,100657.97
2022-11-30T00:04:37.910Z,100658.94
2022-11-30T00:07:40.905Z,100660.81
2022-11-30T00:10:43.788Z,100659.91
2022-11-30T00:13:46.499Z,100654.44
2022-11-30T00:16:49.270Z,100653.56
2022-11-30T00:19:53.733Z,100644.72
2022-11-30T00:22:57.262Z,100648.34
2022-11-30T00:26:03.112Z,100646.56
2022-11-30T00:29:05.915Z,100644.78
2022-11-30T00:32:08.657Z,100642.88
2022-11-30T00:35:12.765Z,100642.94
2022-11-30T00:38:15.718Z,100642.41
2022-11-30T00:41:19.505Z,100662.97
2022-11-30T00:44:22.311Z,100629.72
2022-11-30T00:47:25.110Z,100656.38
2022-11-30T00:50:29.154Z,100651.13
2022-11-30T00:53:32.033Z,100651.03
2022-11-30T00:56:34.812Z,100644.66
2022-11-30T00:59:37.646Z,100654.50
2022-11-30T01:02:40.461Z,100662.72
2022-11-30T01:05:44.634Z,100666.22
2022-11-30T01:08:48.073Z,100667.81
2022-11-30T01:11:50.839Z,100662.41
2022-11-30T01:14:53.549Z,100667.81
2022-11-30T01:17:56.277Z,100663.50
2022-11-30T01:21:00.329Z,100673.38
2022-11-30T01:24:03.811Z,100675.09
2022-11-30T01:27:06.541Z,100675.97
2022-11-30T01:30:10.212Z,100672.41
2022-11-30T01:33:12.932Z,100678.59
2022-11-30T01:36:18.455Z,100678.59
2022-11-30T01:39:21.217Z,100652.81
2022-11-30T01:42:23.960Z,100680.22
2022-11-30T01:45:26.696Z,100675.00
2022-11-30T01:48:30.334Z,100681.19
2022-11-30T01:51:39.215Z,100679.47
2022-11-30T01:54:47.180Z,100674.16
2022-11-30T01:57:53.859Z,100668.78
2022-11-30T02:00:56.852Z,100663.44
2022-11-30T02:04:04.516Z,100643.31
2022-11-30T02:07:09.580Z,100682.22
2022-11-30T02:10:15.956Z,100675.22
2022-11-30T02:13:41.610Z,100674.22
2022-11-30T02:16:55.573Z,100677.00
2022-11-30T02:20:27.713Z,100670.75
2022-11-30T02:24:12.377Z,100662.97
2022-11-30T02:27:26.178Z,100674.34
2022-11-30T02:30:35.131Z,100671.84
2022-11-30T02:33:41.437Z,100672.75
2022-11-30T02:36:47.069Z,100671.25
2022-11-30T02:39:49.789Z,100673.19
2022-11-30T02:42:55.558Z,100665.31
2022-11-30T02:46:08.863Z,100675.84
2022-11-30T02:49:18.632Z,100679.34
2022-11-30T02:52:25.268Z,100673.16
2022-11-30T02:55:30.410Z,100663.34
2022-11-30T02:58:33.214Z,100678.22
2022-11-30T03:01:37.836Z,100681.00
2022-11-30T03:04:40.592Z,100683.81
2022-11-30T03:07:43.422Z,100681.16
2022-11-30T03:10:46.242Z,100685.63
2022-11-30T03:13:49.012Z,100689.31
2022-11-30T03:16:53.184Z,100694.63
2022-11-30T03:19:55.939Z,100692.91
2022-11-30T03:23:02.228Z,100694.69
2022-11-30T03:26:06.809Z,100692.91
2022-11-30T03:29:09.888Z,100698.34
2022-11-30T03:32:13.957Z,100696.50
2022-11-30T03:35:16.876Z,100688.66
2022-11-30T03:38:19.696Z,100696.69
2022-11-30T03:41:22.503Z,100684.22
2022-11-30T03:44:25.298Z,100710.84
2022-11-30T03:47:29.334Z,100710.75
2022-11-30T03:50:32.468Z,100707.97
2022-11-30T03:53:35.538Z,100705.31
2022-11-30T03:56:38.450Z,100707.16
2022-11-30T03:59:41.238Z,100706.25
2022-11-30T04:02:45.432Z,100712.56
2022-11-30T04:05:48.643Z,100717.97
2022-11-30T04:08:51.794Z,100719.75
2022-11-30T04:11:54.631Z,100716.16
2022-11-30T04:14:57.400Z,100715.25
2022-11-30T04:18:01.504Z,100718.88
2022-11-30T04:21:04.941Z,100704.69
2022-11-30T04:24:09.049Z,100720.66
2022-11-30T04:27:11.830Z,100714.38
2022-11-30T04:30:15.953Z,100719.66
2022-11-30T04:33:20.093Z,100717.81
2022-11-30T04:36:22.926Z,100722.22
2022-11-30T04:39:25.906Z,100723.09
2022-11-30T04:42:28.663Z,100722.22
2022-11-30T04:45:35.313Z,100715.13
2022-11-30T04:48:40.003Z,100717.75
2022-11-30T04:51:42.814Z,100718.63
2022-11-30T04:54:45.973Z,100719.53
2022-11-30T04:57:49.770Z,100724.16
2022-11-30T05:00:54.841Z,100728.59
2022-11-30T05:04:00.276Z,100715.94
2022-11-30T05:07:03.557Z,100716.84
2022-11-30T05:10:08.104Z,100729.50
2022-11-30T05:13:10.890Z,100727.69
2022-11-30T05:16:13.669Z,100725.06
2022-11-30T05:19:17.816Z,100723.34
2022-11-30T05:22:20.579Z,100724.38
2022-11-30T05:25:23.351Z,100727.97
2022-11-30T05:28:26.058Z,100734.22
2022-11-30T05:31:29.061Z,100720.03
2022-11-30T05:34:49.426Z,100724.34
2022-11-30T05:37:53.168Z,100727.81
2022-11-30T05:41:01.454Z,100723.53
2022-11-30T05:44:04.536Z,100719.72
2022-11-30T05:47:07.791Z,100725.91
2022-11-30T05:50:12.391Z,100731.41
2022-11-30T05:53:15.084Z,100726.91
2022-11-30T05:56:21.090Z,100731.63
2022-11-30T05:59:24.401Z,100729.97
2022-11-30T06:02:28.440Z,100736.91
2022-11-30T06:05:36.368Z,100734.97
2022-11-30T06:08:39.298Z,100742.13
2022-11-30T06:11:42.018Z,100735.13
2022-11-30T06:14:45.124Z,100743.22
2022-11-30T06:17:48.053Z,100729.75
2022-11-30T06:20:52.148Z,100718.13
2022-11-30T06:23:54.942Z,100737.47
2022-11-30T06:26:57.697Z,100733.00
2022-11-30T06:30:00.433Z,100727.75
2022-11-30T06:33:03.674Z,100735.97
2022-11-30T06:36:08.789Z,100745.88
2022-11-30T06:39:12.278Z,100740.41
2022-11-30T06:42:15.031Z,100732.50
2022-11-30T06:45:18.027Z,100735.16
2022-11-30T06:48:22.961Z,100736.22
2022-11-30T06:51:27.058Z,100741.63
2022-11-30T06:54:29.902Z,100741.53
2022-11-30T06:57:32.644Z,100749.53
2022-11-30T07:00:35.564Z,100742.41
2022-11-30T07:03:38.683Z,100746.84
2022-11-30T07:06:43.438Z,100747.72
2022-11-30T07:09:46.174Z,100751.31
2022-11-30T07:12:48.893Z,100754.88
2022-11-30T07:15:51.823Z,100743.28
2022-11-30T07:18:54.591Z,100755.53
2022-11-30T07:21:58.674Z,100755.38
2022-11-30T07:25:18.790Z,100752.59
2022-11-30T07:28:21.541Z,100759.84
2022-11-30T07:31:27.068Z,100753.59
2022-11-30T07:34:30.617Z,100759.88
2022-11-30T07:37:34.703Z,100758.13
2022-11-30T07:40:37.444Z,100760.84
2022-11-30T07:43:40.559Z,100766.13
2022-11-30T07:46:43.383Z,100761.84
2022-11-30T07:49:46.187Z,100760.84
2022-11-30T07:52:50.228Z,100768.63
2022-11-30T07:55:56.975Z,100769.34
2022-11-30T07:59:01.795Z,100769.44
2022-11-30T08:02:04.816Z,100766.63
2022-11-30T08:05:11.323Z,100767.53
2022-11-30T08:08:15.456Z,100779.31
2022-11-30T08:11:20.277Z,100780.34
2022-11-30T08:14:23.061Z,100782.03
2022-11-30T08:17:25.899Z,100785.56
2022-11-30T08:20:28.626Z,100785.63
2022-11-30T08:23:34.844Z,100788.97
2022-11-30T08:26:37.677Z,100787.78
2022-11-30T08:29:41.335Z,100791.34
2022-11-30T08:32:44.111Z,100788.47
2022-11-30T08:35:46.894Z,100785.56
2022-11-30T08:38:51.033Z,100775.06
2022-11-30T08:41:53.909Z,100793.66
2022-11-30T08:44:56.671Z,100790.88
2022-11-30T08:47:59.569Z,100789.91
2022-11-30T08:51:02.976Z,100797.06
2022-11-30T08:54:07.202Z,100802.19
2022-11-30T08:57:09.915Z,100803.91
2022-11-30T09:00:13.930Z,100788.59
2022-11-30T09:03:16.661Z,100787.69
2022-11-30T09:06:21.127Z,100803.44
2022-11-30T09:09:25.438Z,100798.91
2022-11-30T09:12:28.203Z,100803.25
2022-11-30T09:15:31.104Z,100790.66
2022-11-30T09:18:34.918Z,100797.06
2022-11-30T09:21:37.770Z,100807.69
2022-11-30T09:24:41.897Z,100815.28
2022-11-30T09:27:44.669Z,100820.56
2022-11-30T09:30:47.453Z,100804.16
2022-11-30T09:33:52.584Z,100817.78
2022-11-30T09:36:55.960Z,100809.47
2022-11-30T09:40:00.117Z,100805.22
2022-11-30T09:43:07.880Z,100810.84
2022-11-30T09:46:12.148Z,100812.94
2022-11-30T09:49:20.075Z,100814.88
2022-11-30T09:52:29.638Z,100817.78
2022-11-30T09:55:40.028Z,100817.94
2022-11-30T09:58:49.057Z,100809.91
2022-11-30T10:01:56.651Z,100817.63
2022-11-30T10:05:00.811Z,100820.34
2022-11-30T10:08:20.528Z,100819.41
2022-11-30T10:11:42.270Z,100823.81
2022-11-30T10:15:00.607Z,100823.00
2022-11-30T10:18:13.192Z,100821.94
2022-11-30T10:21:28.400Z,100812.72
2022-11-30T10:24:45.749Z,100809.91
2022-11-30T10:27:53.303Z,100802.56
2022-11-30T10:30:56.050Z,100800.63
2022-11-30T10:34:04.701Z,100794.22
2022-11-30T10:37:12.579Z,100802.34
2022-11-30T10:40:20.798Z,100800.50
2022-11-30T10:43:29.830Z,100796.69
2022-11-30T10:46:37.625Z,100790.22
2022-11-30T10:49:45.306Z,100781.25
2022-11-30T10:52:52.088Z,100785.69
2022-11-30T10:56:02.019Z,100776.91
2022-11-30T10:59:12.893Z,100778.91
2022-11-30T11:02:36.451Z,100777.78
2022-11-30T11:05:39.222Z,100769.69
2022-11-30T11:08:45.467Z,100769.69
2022-11-30T11:11:54.996Z,100767.03
2022-11-30T11:15:11.668Z,100767.09
2022-11-30T11:18:24.460Z,100769.00
2022-11-30T11:21:28.467Z,100773.44
2022-11-30T11:24:31.422Z,100778.47
2022-11-30T11:27:37.535Z,100769.34
2022-11-30T11:30:45.579Z,100766.06
2022-11-30T11:33:53.734Z,100774.25
2022-11-30T11:37:06.298Z,100777.97
2022-11-30T11:40:15.914Z,100778.63
2022-11-30T11:43:19.643Z,100781.34
2022-11-30T11:46:24.149Z,100784.81
2022-11-30T11:49:29.745Z,100785.19
2022-11-30T11:52:32.483Z,100783.50
2022-11-30T11:55:36.517Z,100783.59
2022-11-30T11:58:44.084Z,100766.78
2022-11-30T12:01:56.414Z,100784.56
2022-11-30T12:05:04.044Z,100789.94
2022-11-30T12:08:14.466Z,100788.97
2022-11-30T12:11:20.599Z,100790.78
2022-11-30T12:14:23.457Z,100789.00
2022-11-30T12:17:52.378Z,100794.28
2022-11-30T12:20:59.458Z,100796.38
2022-11-30T12:24:15.768Z,100798.91
2022-11-30T12:27:26.366Z,100795.09
2022-11-30T12:30:38.958Z,100796.03
2022-11-30T12:34:14.769Z,100786.03
2022-11-30T12:37:25.561Z,100800.75
2022-11-30T12:40:37.622Z,100797.19
2022-11-30T12:43:59.403Z,100799.81
2022-11-30T12:47:20.298Z,100785.50
2022-11-30T12:50:39.365Z,100789.94
2022-11-30T12:53:48.421Z,100751.75
2022-11-30T12:56:56.130Z,100786.28
2022-11-30T13:00:07.166Z,100795.28
2022-11-30T13:03:42.588Z,100791.09
2022-11-30T13:06:49.782Z,100785.72
2022-11-30T13:09:57.699Z,100777.81
2022-11-30T13:13:03.240Z,100769.16
2022-11-30T13:16:09.514Z,100774.19
2022-11-30T13:19:27.556Z,100786.84
2022-11-30T13:22:43.945Z,100783.38
2022-11-30T13:29:50.349Z,100789.19
2022-11-30T13:32:58.320Z,100792.88
2022-11-30T13:36:04.999Z,100791.22
2022-11-30T13:39:30.815Z,100800.41
2022-11-30T13:42:36.281Z,100780.16
2022-11-30T13:45:39.216Z,100800.47
2022-11-30T13:48:43.881Z,100801.66
2022-11-30T13:51:56.775Z,100811.47
2022-11-30T13:55:43.045Z,100805.00
2022-11-30T13:59:18.985Z,100805.66
2022-11-30T14:03:00.169Z,100806.38
2022-11-30T14:06:28.962Z,100815.38
2022-11-30T14:09:58.308Z,100813.84
2022-11-30T14:13:03.359Z,100809.88
2022-11-30T14:16:21.356Z,100810.66
2022-11-30T14:19:24.271Z,100811.13
2022-11-30T14:22:30.426Z,100813.94
2022-11-30T14:25:36.150Z,100789.09
2022-11-30T14:28:43.909Z,100814.16
2022-11-30T14:31:57.785Z,100818.13
2022-11-30T14:35:08.947Z,100821.56
2022-11-30T14:38:24.493Z,100822.38
2022-11-30T14:41:29.356Z,100829.44
2022-11-30T14:44:35.710Z,100828.44
2022-11-30T14:47:41.322Z,100838.22
2022-11-30T14:50:49.473Z,100829.25
2022-11-30T14:53:59.629Z,100830.16
2022-11-30T14:57:12.414Z,100830.22
2022-11-30T15:00:17.863Z,100812.31
2022-11-30T15:03:26.461Z,100823.94
2022-11-30T15:06:33.304Z,100820.44
2022-11-30T15:09:37.697Z,100819.63
2022-11-30T15:12:41.754Z,100819.53
2022-11-30T15:15:52.378Z,100823.94
2022-11-30T15:18:57.335Z,100821.16
2022-11-30T15:22:00.385Z,100812.25
2022-11-30T15:25:05.840Z,100821.97
2022-11-30T15:28:10.640Z,100829.16
2022-11-30T15:31:17.763Z,100822.00
2022-11-30T15:34:23.091Z,100831.00
2022-11-30T15:37:31.178Z,100820.22
2022-11-30T15:40:35.899Z,100822.88
2022-11-30T15:43:40.708Z,100824.91
2022-11-30T15:46:56.959Z,100833.91
2022-11-30T15:49:59.772Z,100844.63
2022-11-30T15:53:04.305Z,100839.94
2022-11-30T15:56:10.487Z,100799.28
2022-11-30T15:59:23.450Z,100845.56
2022-11-30T16:02:32.248Z,100853.66
2022-11-30T16:05:35.035Z,100844.69
2022-11-30T16:08:37.904Z,100843.88
2022-11-30T16:11:42.094Z,100838.22
2022-11-30T16:14:44.861Z,100848.22
2022-11-30T16:17:47.668Z,100851.09
2022-11-30T16:20:52.903Z,100835.38
2022-11-30T16:23:55.661Z,100856.66
2022-11-30T16:26:59.981Z,100851.25
2022-11-30T16:30:03.427Z,100858.47
2022-11-30T16:33:07.076Z,100856.56
2022-11-30T16:36:14.448Z,100857.47
2022-11-30T16:39:18.570Z,100854.94
2022-11-30T16:42:32.182Z,100860.47
2022-11-30T16:45:37.767Z,100859.63
2022-11-30T16:48:41.311Z,100846.31
2022-11-30T16:51:44.468Z,100866.81
2022-11-30T16:54:47.190Z,100870.34
2022-11-30T16:57:52.019Z,100873.97
2022-11-30T17:00:55.064Z,100874.16
2022-11-30T17:03:58.060Z,100878.66
2022-11-30T17:07:02.990Z,100868.72
2022-11-30T17:10:07.136Z,100885.88
2022-11-30T17:13:14.914Z,100877.78
2022-11-30T17:16:17.832Z,100884.03
2022-11-30T17:19:20.827Z,100894.66
2022-11-30T17:22:23.562Z,100885.81
2022-11-30T17:25:26.462Z,100889.25
2022-11-30T17:28:30.597Z,100896.38
2022-11-30T17:31:33.813Z,100886.03
2022-11-30T17:34:36.595Z,100901.19
2022-11-30T17:37:40.102Z,100903.88
2022-11-30T17:40:43.128Z,100901.34
2022-11-30T17:43:47.297Z,100893.75
2022-11-30T17:46:50.094Z,100897.38
2022-11-30T17:49:52.889Z,100902.19
2022-11-30T17:52:55.735Z,100909.41
2022-11-30T17:56:05.966Z,100902.16
2022-11-30T17:59:10.213Z,100905.72
2022-11-30T18:02:13.619Z,100912.03
2022-11-30T18:05:16.598Z,100898.56
2022-11-30T18:08:19.617Z,100889.06
2022-11-30T18:11:24.664Z,100902.41
2022-11-30T18:14:28.848Z,100889.78
2022-11-30T18:17:32.041Z,100888.78
2022-11-30T18:20:34.923Z,100895.06
2022-11-30T18:23:38.142Z,100878.25
2022-11-30T18:26:41.661Z,100906.66
2022-11-30T18:29:45.751Z,100896.84
2022-11-30T18:32:48.864Z,100910.22
2022-11-30T18:35:51.736Z,100912.94
2022-11-30T18:38:54.860Z,100916.38
2022-11-30T18:41:57.756Z,100908.56
2022-11-30T18:45:02.274Z,100911.13
2022-11-30T18:48:06.400Z,100901.50
2022-11-30T18:51:13.598Z,100914.06
2022-11-30T18:54:16.373Z,100911.38
2022-11-30T18:57:19.169Z,100891.94
2022-11-30T19:00:24.766Z,100907.03
2022-11-30T19:03:27.559Z,100906.25
2022-11-30T19:06:32.785Z,100915.81
2022-11-30T19:09:35.547Z,100922.16
2022-11-30T19:12:38.508Z,100916.19
2022-11-30T19:15:43.361Z,100928.75
2022-11-30T19:18:48.403Z,100926.13
2022-11-30T19:21:51.333Z,100930.56
2022-11-30T19:24:54.042Z,100932.47
2022-11-30T19:27:56.825Z,100922.78
2022-11-30T19:31:02.469Z,100941.59
2022-11-30T19:34:11.974Z,100945.28
2022-11-30T19:37:15.623Z,100930.34
2022-11-30T19:40:18.531Z,100952.66
2022-11-30T19:43:21.268Z,100958.09
2022-11-30T19:46:26.238Z,100960.84
2022-11-30T19:49:28.977Z,100959.91
2022-11-30T19:52:31.828Z,100959.16
2022-11-30T19:55:34.612Z,100967.28
2022-11-30T19:58:37.371Z,100971.91
2022-11-30T20:01:41.809Z,100977.28
2022-11-30T20:04:44.736Z,100971.00
2022-11-30T20:07:47.572Z,100971.88
2022-11-30T20:10:50.408Z,100971.91
2022-11-30T20:13:53.293Z,100981.72
2022-11-30T20:16:57.387Z,100978.13
2022-11-30T20:20:00.127Z,100983.44
2022-11-30T20:23:04.616Z,100984.31
2022-11-30T20:26:15.697Z,100988.78
2022-11-30T20:29:19.240Z,100958.59
2022-11-30T20:32:23.996Z,100993.38
2022-11-30T20:35:26.871Z,100995.31
2022-11-30T20:38:30.124Z,100967.81
2022-11-30T20:41:33.981Z,100992.66
2022-11-30T20:44:37.364Z,101005.31
2022-11-30T20:47:41.459Z,100997.31
2022-11-30T20:51:01.194Z,101002.69
2022-11-30T20:54:08.172Z,101001.81
2022-11-30T20:57:10.955Z,101010.97
2022-11-30T21:00:14.988Z,101000.34
2022-11-30T21:03:19.143Z,101003.09
2022-11-30T21:06:22.002Z,101006.63
2022-11-30T21:09:24.751Z,101003.81
2022-11-30T21:12:27.663Z,101011.88
2022-11-30T21:15:30.515Z,101013.59
2022-11-30T21:18:34.872Z,101007.31
2022-11-30T21:21:37.744Z,101006.41
2022-11-30T21:24:40.551Z,101010.06
2022-11-30T21:27:43.432Z,101013.53
2022-11-30T21:30:46.307Z,101011.81
2022-11-30T21:33:53.627Z,101012.78
2022-11-30T21:36:56.733Z,101014.63
2022-11-30T21:39:59.559Z,101017.28
2022-11-30T21:43:02.308Z,101024.44
2022-11-30T21:46:07.645Z,101020.72
2022-11-30T21:49:12.338Z,101013.53
2022-11-30T21:52:15.268Z,101008.16
2022-11-30T21:55:18.414Z,101014.63
2022-11-30T21:58:21.651Z,101015.53
2022-11-30T22:01:27.264Z,100999.63
2022-11-30T22:04:38.012Z,101017.44
2022-11-30T22:07:41.055Z,101019.09
2022-11-30T22:10:44.040Z,101015.47
2022-11-30T22:13:50.530Z,101024.69
2022-11-30T22:16:53.738Z,101010.25
2022-11-30T22:19:57.987Z,101013.00
2022-11-30T22:23:00.945Z,101017.50
2022-11-30T22:26:15.622Z,101004.97
2022-11-30T22:29:20.869Z,100999.47
2022-11-30T22:32:24.236Z,101007.81
2022-11-30T22:35:28.615Z,101007.78
2022-11-30T22:38:31.904Z,101014.06
2022-11-30T22:41:34.860Z,101006.00
2022-11-30T22:44:37.722Z,101007.72
2022-11-30T22:47:40.501Z,101013.97
2022-11-30T22:50:44.666Z,101011.28
2022-11-30T22:53:48.280Z,101005.97
2022-11-30T22:56:51.075Z,101014.06
2022-11-30T22:59:53.783Z,101010.63
2022-11-30T23:02:56.651Z,101019.66
2022-11-30T23:06:02.307Z,101012.53
2022-11-30T23:09:06.661Z,101011.50
2022-11-30T23:12:09.605Z,101016.88
2022-11-30T23:15:12.608Z,101011.50
2022-11-30T23:18:15.395Z,101016.78
2022-11-30T23:21:21.485Z,101014.94
2022-11-30T23:24:24.362Z,101014.97
2022-11-30T23:27:27.130Z,101010.50
2022-11-30T23:30:30.053Z,101015.75
2022-11-30T23:33:32.832Z,101010.50
2022-11-30T23:36:37.935Z,101012.31
2022-11-30T23:39:40.673Z,101007.13
2022-11-30T23:42:43.477Z,100987.63
2022-11-30T23:45:46.644Z,100991.16
2022-11-30T23:48:49.636Z,101018.78
2022-11-30T23:51:53.743Z,101018.78
2022-11-30T23:54:56.567Z,101009.81
2022-11-30T23:57:59.345Z,101009.91
